sensor_id;sensor_type;location;lat;lon;timestamp;temperature;humidity
18160;DHT22;9205;52.032;4.314;2024-01-10T00:01:54;-2.20;99.90
18160;DHT22;9205;52.032;4.314;2024-01-10T00:04:21;-2.20;99.90
18160;DHT22;9205;52.032;4.314;2024-01-10T00:06:50;-2.20;99.90
18160;DHT22;9205;52.032;4.314;2024-01-10T00:09:17;-2.20;99.90
18160;DHT22;9205;52.032;4.314;2024-01-10T00:11:44;-2.20;99.90
18160;DHT22;9205;52.032;4.314;2024-01-10T00:14:11;-2.20;99.90
18160;DHT22;9205;52.032;4.314;2024-01-10T00:16:38;-2.20;99.90
18160;DHT22;9205;52.032;4.314;2024-01-10T00:19:06;-2.20;99.90
18160;DHT22;9205;52.032;4.314;2024-01-10T00:21:33;-2.20;99.90
18160;DHT22;9205;52.032;4.314;2024-01-10T00:24:02;-2.30;99.90
18160;DHT22;9205;52.032;4.314;2024-01-10T00:26:29;-2.30;99.90
18160;DHT22;9205;52.032;4.314;2024-01-10T00:28:57;-2.20;99.90
18160;DHT22;9205;52.032;4.314;2024-01-10T00:31:24;-2.30;99.90
18160;DHT22;9205;52.032;4.314;2024-01-10T00:33:51;-2.30;99.90
18160;DHT22;9205;52.032;4.314;2024-01-10T00:36:18;-2.30;1.00
18160;DHT22;9205;52.032;4.314;2024-01-10T00:38:45;-2.30;1.00
18160;DHT22;9205;52.032;4.314;2024-01-10T00:41:14;-2.30;1.00
18160;DHT22;9205;52.032;4.314;2024-01-10T00:43:41;-2.30;1.00
18160;DHT22;9205;52.032;4.314;2024-01-10T00:46:08;-2.30;1.00
18160;DHT22;9205;52.032;4.314;2024-01-10T00:48:35;-2.40;1.00
18160;DHT22;9205;52.032;4.314;2024-01-10T00:51:03;-2.30;1.00
18160;DHT22;9205;52.032;4.314;2024-01-10T00:53:34;-2.30;1.00
18160;DHT22;9205;52.032;4.314;2024-01-10T00:56:01;-2.30;1.00
18160;DHT22;9205;52.032;4.314;2024-01-10T00:58:29;-2.30;1.00
18160;DHT22;9205;52.032;4.314;2024-01-10T01:00:56;-2.30;1.00
18160;DHT22;9205;52.032;4.314;2024-01-10T01:03:24;-2.50;1.00
18160;DHT22;9205;52.032;4.314;2024-01-10T01:05:51;-2.40;1.00
18160;DHT22;9205;52.032;4.314;2024-01-10T01:08:18;-2.40;1.00
18160;DHT22;9205;52.032;4.314;2024-01-10T01:10:45;-2.30;1.00
18160;DHT22;9205;52.032;4.314;2024-01-10T01:13:13;-2.30;1.00
18160;DHT22;9205;52.032;4.314;2024-01-10T01:15:41;-2.40;1.00
18160;DHT22;9205;52.032;4.314;2024-01-10T01:18:08;-2.50;1.00
18160;DHT22;9205;52.032;4.314;2024-01-10T01:20:38;-2.40;1.00
18160;DHT22;9205;52.032;4.314;2024-01-10T01:23:05;-2.40;1.00
18160;DHT22;9205;52.032;4.314;2024-01-10T01:25:32;-2.40;1.00
18160;DHT22;9205;52.032;4.314;2024-01-10T01:27:59;-2.40;1.00
18160;DHT22;9205;52.032;4.314;2024-01-10T01:30:26;-2.40;1.00
18160;DHT22;9205;52.032;4.314;2024-01-10T01:32:55;-2.40;1.00
18160;DHT22;9205;52.032;4.314;2024-01-10T01:35:22;-2.40;1.00
18160;DHT22;9205;52.032;4.314;2024-01-10T01:37:49;-2.40;1.00
18160;DHT22;9205;52.032;4.314;2024-01-10T01:40:18;-2.50;1.00
18160;DHT22;9205;52.032;4.314;2024-01-10T01:42:45;-2.40;1.00
18160;DHT22;9205;52.032;4.314;2024-01-10T01:45:13;-2.50;1.00
18160;DHT22;9205;52.032;4.314;2024-01-10T01:47:41;-2.50;1.00
18160;DHT22;9205;52.032;4.314;2024-01-10T01:50:10;-2.40;1.00
18160;DHT22;9205;52.032;4.314;2024-01-10T01:52:37;-2.50;1.00
18160;DHT22;9205;52.032;4.314;2024-01-10T01:55:06;-2.50;1.00
18160;DHT22;9205;52.032;4.314;2024-01-10T01:57:35;-2.50;1.00
18160;DHT22;9205;52.032;4.314;2024-01-10T02:00:03;-2.40;1.00
18160;DHT22;9205;52.032;4.314;2024-01-10T02:02:32;-2.50;1.00
18160;DHT22;9205;52.032;4.314;2024-01-10T02:05:01;-2.50;1.00
18160;DHT22;9205;52.032;4.314;2024-01-10T02:07:30;-2.50;1.00
18160;DHT22;9205;52.032;4.314;2024-01-10T02:09:58;-2.50;1.00
18160;DHT22;9205;52.032;4.314;2024-01-10T02:12:25;-2.50;1.00
18160;DHT22;9205;52.032;4.314;2024-01-10T02:14:52;-2.50;1.00
18160;DHT22;9205;52.032;4.314;2024-01-10T02:17:19;-2.60;1.00
18160;DHT22;9205;52.032;4.314;2024-01-10T02:19:47;-2.50;1.00
18160;DHT22;9205;52.032;4.314;2024-01-10T02:22:14;-2.50;1.00
18160;DHT22;9205;52.032;4.314;2024-01-10T02:24:42;-2.50;1.00
18160;DHT22;9205;52.032;4.314;2024-01-10T02:27:11;-2.50;1.00
18160;DHT22;9205;52.032;4.314;2024-01-10T02:29:38;-2.50;1.00
18160;DHT22;9205;52.032;4.314;2024-01-10T02:32:06;-2.50;1.00
18160;DHT22;9205;52.032;4.314;2024-01-10T02:34:33;-2.50;1.00
18160;DHT22;9205;52.032;4.314;2024-01-10T02:37:00;-2.50;1.00
18160;DHT22;9205;52.032;4.314;2024-01-10T02:39:27;-2.60;1.00
18160;DHT22;9205;52.032;4.314;2024-01-10T02:41:54;-2.50;1.00
18160;DHT22;9205;52.032;4.314;2024-01-10T02:44:23;-2.50;1.00
18160;DHT22;9205;52.032;4.314;2024-01-10T02:46:50;-2.50;1.00
18160;DHT22;9205;52.032;4.314;2024-01-10T02:49:17;-2.50;1.00
18160;DHT22;9205;52.032;4.314;2024-01-10T02:51:44;-2.60;1.00
18160;DHT22;9205;52.032;4.314;2024-01-10T02:54:12;-2.60;1.00
18160;DHT22;9205;52.032;4.314;2024-01-10T02:56:39;-2.50;1.00
18160;DHT22;9205;52.032;4.314;2024-01-10T02:59:06;-2.50;1.00
18160;DHT22;9205;52.032;4.314;2024-01-10T03:01:34;-2.50;1.00
18160;DHT22;9205;52.032;4.314;2024-01-10T03:04:01;-2.60;1.00
18160;DHT22;9205;52.032;4.314;2024-01-10T03:06:29;-2.50;1.00
18160;DHT22;9205;52.032;4.314;2024-01-10T03:08:56;-2.50;1.00
18160;DHT22;9205;52.032;4.314;2024-01-10T03:11:23;-2.50;1.00
18160;DHT22;9205;52.032;4.314;2024-01-10T03:14:01;-2.40;1.00
18160;DHT22;9205;52.032;4.314;2024-01-10T03:16:29;-2.50;1.00
18160;DHT22;9205;52.032;4.314;2024-01-10T03:18:58;-2.50;1.00
18160;DHT22;9205;52.032;4.314;2024-01-10T03:21:25;-2.50;1.00
18160;DHT22;9205;52.032;4.314;2024-01-10T03:23:53;-2.50;1.00
18160;DHT22;9205;52.032;4.314;2024-01-10T03:26:21;-2.50;1.00
18160;DHT22;9205;52.032;4.314;2024-01-10T03:28:49;-2.60;1.00
18160;DHT22;9205;52.032;4.314;2024-01-10T03:31:16;-2.60;3.00
18160;DHT22;9205;52.032;4.314;2024-01-10T03:33:43;-2.60;14.50
18160;DHT22;9205;52.032;4.314;2024-01-10T03:36:14;-2.60;21.20
18160;DHT22;9205;52.032;4.314;2024-01-10T03:38:43;-2.60;35.60
18160;DHT22;9205;52.032;4.314;2024-01-10T03:41:13;-2.60;56.50
18160;DHT22;9205;52.032;4.314;2024-01-10T03:43:40;-2.50;73.90
18160;DHT22;9205;52.032;4.314;2024-01-10T03:46:07;-2.60;82.50
18160;DHT22;9205;52.032;4.314;2024-01-10T03:48:35;-2.60;99.70
18160;DHT22;9205;52.032;4.314;2024-01-10T03:51:02;-2.70;96.30
18160;DHT22;9205;52.032;4.314;2024-01-10T03:53:31;-2.70;94.30
18160;DHT22;9205;52.032;4.314;2024-01-10T03:55:58;-2.70;99.90
18160;DHT22;9205;52.032;4.314;2024-01-10T03:58:25;-2.70;99.90
18160;DHT22;9205;52.032;4.314;2024-01-10T04:00:53;-2.70;99.90
18160;DHT22;9205;52.032;4.314;2024-01-10T04:03:20;-2.70;99.90
18160;DHT22;9205;52.032;4.314;2024-01-10T04:05:47;-2.70;99.90
18160;DHT22;9205;52.032;4.314;2024-01-10T04:08:14;-2.70;99.90
18160;DHT22;9205;52.032;4.314;2024-01-10T04:10:43;-2.60;99.90
18160;DHT22;9205;52.032;4.314;2024-01-10T04:13:10;-2.80;99.90
18160;DHT22;9205;52.032;4.314;2024-01-10T04:15:37;-2.70;99.90
18160;DHT22;9205;52.032;4.314;2024-01-10T04:18:04;-2.70;99.90
18160;DHT22;9205;52.032;4.314;2024-01-10T04:20:32;-2.80;99.90
18160;DHT22;9205;52.032;4.314;2024-01-10T04:22:59;-2.80;99.90
18160;DHT22;9205;52.032;4.314;2024-01-10T04:25:26;-2.80;99.90
18160;DHT22;9205;52.032;4.314;2024-01-10T04:27:55;-2.80;99.90
18160;DHT22;9205;52.032;4.314;2024-01-10T04:30:22;-2.80;99.90
18160;DHT22;9205;52.032;4.314;2024-01-10T04:32:50;-2.90;99.90
18160;DHT22;9205;52.032;4.314;2024-01-10T04:35:17;-2.80;99.90
18160;DHT22;9205;52.032;4.314;2024-01-10T04:37:45;-2.80;99.90
18160;DHT22;9205;52.032;4.314;2024-01-10T04:40:12;-2.80;99.90
18160;DHT22;9205;52.032;4.314;2024-01-10T04:42:39;-2.80;99.90
18160;DHT22;9205;52.032;4.314;2024-01-10T04:45:08;-2.80;99.90
18160;DHT22;9205;52.032;4.314;2024-01-10T04:47:36;-2.80;99.90
18160;DHT22;9205;52.032;4.314;2024-01-10T04:50:04;-2.90;99.90
18160;DHT22;9205;52.032;4.314;2024-01-10T04:52:31;-2.90;99.90
18160;DHT22;9205;52.032;4.314;2024-01-10T04:54:58;-2.90;99.90
18160;DHT22;9205;52.032;4.314;2024-01-10T04:57:25;-2.90;99.90
18160;DHT22;9205;52.032;4.314;2024-01-10T04:59:53;-2.80;99.90
18160;DHT22;9205;52.032;4.314;2024-01-10T05:02:21;-2.90;99.90
18160;DHT22;9205;52.032;4.314;2024-01-10T05:04:49;-2.80;99.90
18160;DHT22;9205;52.032;4.314;2024-01-10T05:07:16;-2.80;99.90
18160;DHT22;9205;52.032;4.314;2024-01-10T05:09:43;-2.90;99.90
18160;DHT22;9205;52.032;4.314;2024-01-10T05:12:10;-2.90;99.90
18160;DHT22;9205;52.032;4.314;2024-01-10T05:14:37;-2.90;99.90
18160;DHT22;9205;52.032;4.314;2024-01-10T05:17:05;-2.80;99.90
18160;DHT22;9205;52.032;4.314;2024-01-10T05:19:33;-2.90;99.90
18160;DHT22;9205;52.032;4.314;2024-01-10T05:22:00;-2.80;99.90
18160;DHT22;9205;52.032;4.314;2024-01-10T05:24:28;-2.90;99.90
18160;DHT22;9205;52.032;4.314;2024-01-10T05:26:55;-2.80;99.90
18160;DHT22;9205;52.032;4.314;2024-01-10T05:29:23;-2.80;99.90
18160;DHT22;9205;52.032;4.314;2024-01-10T05:31:51;-2.90;99.90
18160;DHT22;9205;52.032;4.314;2024-01-10T05:34:18;-2.80;99.90
18160;DHT22;9205;52.032;4.314;2024-01-10T05:36:46;-2.80;99.90
18160;DHT22;9205;52.032;4.314;2024-01-10T05:39:15;-2.80;99.90
18160;DHT22;9205;52.032;4.314;2024-01-10T05:41:42;-2.90;99.90
18160;DHT22;9205;52.032;4.314;2024-01-10T05:44:10;-2.90;99.90
18160;DHT22;9205;52.032;4.314;2024-01-10T05:46:37;-2.90;99.90
18160;DHT22;9205;52.032;4.314;2024-01-10T05:49:04;-2.90;99.90
18160;DHT22;9205;52.032;4.314;2024-01-10T05:51:31;-2.90;99.90
18160;DHT22;9205;52.032;4.314;2024-01-10T05:54:00;-2.90;99.90
18160;DHT22;9205;52.032;4.314;2024-01-10T05:56:27;-2.90;99.90
18160;DHT22;9205;52.032;4.314;2024-01-10T05:58:54;-2.90;99.90
18160;DHT22;9205;52.032;4.314;2024-01-10T06:01:22;-2.90;99.90
18160;DHT22;9205;52.032;4.314;2024-01-10T06:03:49;-3.00;99.90
18160;DHT22;9205;52.032;4.314;2024-01-10T06:06:16;-3.00;99.90
18160;DHT22;9205;52.032;4.314;2024-01-10T06:08:43;-3.00;99.90
18160;DHT22;9205;52.032;4.314;2024-01-10T06:11:12;-3.00;99.90
18160;DHT22;9205;52.032;4.314;2024-01-10T06:13:39;-2.90;99.90
18160;DHT22;9205;52.032;4.314;2024-01-10T06:16:07;-3.00;99.90
18160;DHT22;9205;52.032;4.314;2024-01-10T06:18:34;-3.00;99.90
18160;DHT22;9205;52.032;4.314;2024-01-10T06:21:01;-2.90;99.90
18160;DHT22;9205;52.032;4.314;2024-01-10T06:23:30;-2.90;99.90
18160;DHT22;9205;52.032;4.314;2024-01-10T06:25:57;-3.00;99.90
18160;DHT22;9205;52.032;4.314;2024-01-10T06:28:25;-2.90;99.90
18160;DHT22;9205;52.032;4.314;2024-01-10T06:30:52;-3.00;94.90
18160;DHT22;9205;52.032;4.314;2024-01-10T06:33:19;-3.00;86.90
18160;DHT22;9205;52.032;4.314;2024-01-10T06:35:47;-3.00;58.00
18160;DHT22;9205;52.032;4.314;2024-01-10T06:38:14;-2.90;53.00
18160;DHT22;9205;52.032;4.314;2024-01-10T06:40:42;-2.90;47.40
18160;DHT22;9205;52.032;4.314;2024-01-10T06:43:10;-2.90;48.40
18160;DHT22;9205;52.032;4.314;2024-01-10T06:45:38;-3.00;28.90
18160;DHT22;9205;52.032;4.314;2024-01-10T06:48:08;-2.90;15.60
18160;DHT22;9205;52.032;4.314;2024-01-10T06:50:35;-2.90;20.90
18160;DHT22;9205;52.032;4.314;2024-01-10T06:53:03;-3.00;12.60
18160;DHT22;9205;52.032;4.314;2024-01-10T06:55:30;-3.00;1.00
18160;DHT22;9205;52.032;4.314;2024-01-10T06:57:57;-3.00;1.00
18160;DHT22;9205;52.032;4.314;2024-01-10T07:00:24;-3.00;1.00
18160;DHT22;9205;52.032;4.314;2024-01-10T07:02:53;-3.00;1.00
18160;DHT22;9205;52.032;4.314;2024-01-10T07:05:20;-3.00;1.00
18160;DHT22;9205;52.032;4.314;2024-01-10T07:07:47;-3.00;1.00
18160;DHT22;9205;52.032;4.314;2024-01-10T07:10:15;-3.00;1.00
18160;DHT22;9205;52.032;4.314;2024-01-10T07:12:44;-3.00;1.00
18160;DHT22;9205;52.032;4.314;2024-01-10T07:15:11;-3.00;1.00
18160;DHT22;9205;52.032;4.314;2024-01-10T07:17:38;-3.00;1.00
18160;DHT22;9205;52.032;4.314;2024-01-10T07:20:09;-3.00;1.00
18160;DHT22;9205;52.032;4.314;2024-01-10T07:22:37;-3.00;1.00
18160;DHT22;9205;52.032;4.314;2024-01-10T07:25:07;-3.00;1.00
18160;DHT22;9205;52.032;4.314;2024-01-10T07:27:35;-3.00;1.00
18160;DHT22;9205;52.032;4.314;2024-01-10T07:30:04;-3.00;1.00
18160;DHT22;9205;52.032;4.314;2024-01-10T07:32:39;-3.00;1.00
18160;DHT22;9205;52.032;4.314;2024-01-10T07:35:09;-3.10;1.00
18160;DHT22;9205;52.032;4.314;2024-01-10T07:37:37;-3.10;1.00
18160;DHT22;9205;52.032;4.314;2024-01-10T07:40:05;-3.10;1.00
18160;DHT22;9205;52.032;4.314;2024-01-10T07:42:33;-3.10;1.00
18160;DHT22;9205;52.032;4.314;2024-01-10T07:45:01;-3.00;1.00
18160;DHT22;9205;52.032;4.314;2024-01-10T07:47:30;-3.00;1.00
18160;DHT22;9205;52.032;4.314;2024-01-10T07:49:57;-3.00;15.70
18160;DHT22;9205;52.032;4.314;2024-01-10T07:52:26;-3.10;18.10
18160;DHT22;9205;52.032;4.314;2024-01-10T07:54:53;-3.20;8.00
18160;DHT22;9205;52.032;4.314;2024-01-10T07:57:20;-3.10;16.50
18160;DHT22;9205;52.032;4.314;2024-01-10T07:59:47;-3.10;17.30
18160;DHT22;9205;52.032;4.314;2024-01-10T08:02:15;-3.10;17.40
18160;DHT22;9205;52.032;4.314;2024-01-10T08:04:43;-3.00;31.70
18160;DHT22;9205;52.032;4.314;2024-01-10T08:07:10;-3.10;28.60
18160;DHT22;9205;52.032;4.314;2024-01-10T08:09:39;-3.00;35.60
18160;DHT22;9205;52.032;4.314;2024-01-10T08:12:06;-3.00;40.10
18160;DHT22;9205;52.032;4.314;2024-01-10T08:14:34;-3.10;46.90
18160;DHT22;9205;52.032;4.314;2024-01-10T08:17:03;-3.10;52.60
18160;DHT22;9205;52.032;4.314;2024-01-10T08:19:32;-3.00;63.10
18160;DHT22;9205;52.032;4.314;2024-01-10T08:21:59;-3.10;76.60
18160;DHT22;9205;52.032;4.314;2024-01-10T08:24:26;-3.00;87.10
18160;DHT22;9205;52.032;4.314;2024-01-10T08:26:55;-3.10;74.90
18160;DHT22;9205;52.032;4.314;2024-01-10T08:29:22;-3.10;55.90
18160;DHT22;9205;52.032;4.314;2024-01-10T08:31:55;-3.10;42.80
18160;DHT22;9205;52.032;4.314;2024-01-10T08:34:23;-3.10;34.50
18160;DHT22;9205;52.032;4.314;2024-01-10T08:36:51;-3.00;40.40
18160;DHT22;9205;52.032;4.314;2024-01-10T08:39:19;-3.10;42.90
18160;DHT22;9205;52.032;4.314;2024-01-10T08:41:47;-3.10;27.50
18160;DHT22;9205;52.032;4.314;2024-01-10T08:44:16;-3.00;26.80
18160;DHT22;9205;52.032;4.314;2024-01-10T08:46:43;-3.00;2.60
18160;DHT22;9205;52.032;4.314;2024-01-10T08:49:11;-3.00;1.00
18160;DHT22;9205;52.032;4.314;2024-01-10T08:51:38;-3.00;1.00
18160;DHT22;9205;52.032;4.314;2024-01-10T08:54:06;-3.00;1.00
18160;DHT22;9205;52.032;4.314;2024-01-10T08:56:34;-3.00;1.00
18160;DHT22;9205;52.032;4.314;2024-01-10T08:59:01;-2.90;1.00
18160;DHT22;9205;52.032;4.314;2024-01-10T09:01:31;-2.90;1.00
18160;DHT22;9205;52.032;4.314;2024-01-10T09:03:58;-2.80;1.00
18160;DHT22;9205;52.032;4.314;2024-01-10T09:06:25;-2.80;1.00
18160;DHT22;9205;52.032;4.314;2024-01-10T09:08:52;-2.80;1.00
18160;DHT22;9205;52.032;4.314;2024-01-10T09:11:19;-2.70;1.00
18160;DHT22;9205;52.032;4.314;2024-01-10T09:13:47;-2.70;1.00
18160;DHT22;9205;52.032;4.314;2024-01-10T09:16:15;-2.60;1.00
18160;DHT22;9205;52.032;4.314;2024-01-10T09:18:45;-2.70;1.00
18160;DHT22;9205;52.032;4.314;2024-01-10T09:21:14;-2.70;1.00
18160;DHT22;9205;52.032;4.314;2024-01-10T09:23:41;-2.60;1.00
18160;DHT22;9205;52.032;4.314;2024-01-10T09:26:08;-2.60;1.00
18160;DHT22;9205;52.032;4.314;2024-01-10T09:28:36;-2.50;1.00
18160;DHT22;9205;52.032;4.314;2024-01-10T09:31:03;-2.50;1.00
18160;DHT22;9205;52.032;4.314;2024-01-10T09:33:32;-2.50;1.00
18160;DHT22;9205;52.032;4.314;2024-01-10T09:36:02;-2.40;1.00
18160;DHT22;9205;52.032;4.314;2024-01-10T09:38:29;-2.40;1.00
18160;DHT22;9205;52.032;4.314;2024-01-10T09:41:03;-2.30;1.00
18160;DHT22;9205;52.032;4.314;2024-01-10T09:43:31;-2.30;1.00
18160;DHT22;9205;52.032;4.314;2024-01-10T09:46:01;-2.20;1.00
18160;DHT22;9205;52.032;4.314;2024-01-10T09:48:29;-2.10;1.00
18160;DHT22;9205;52.032;4.314;2024-01-10T09:50:57;-2.10;1.00
18160;DHT22;9205;52.032;4.314;2024-01-10T09:53:27;-2.00;1.00
18160;DHT22;9205;52.032;4.314;2024-01-10T09:55:57;-2.00;1.00
18160;DHT22;9205;52.032;4.314;2024-01-10T09:58:25;-1.90;1.00
18160;DHT22;9205;52.032;4.314;2024-01-10T10:00:53;-1.90;1.00
18160;DHT22;9205;52.032;4.314;2024-01-10T10:03:21;-1.80;1.00
18160;DHT22;9205;52.032;4.314;2024-01-10T10:05:49;-1.70;1.00
18160;DHT22;9205;52.032;4.314;2024-01-10T10:08:16;-1.60;1.00
18160;DHT22;9205;52.032;4.314;2024-01-10T10:10:50;-1.50;1.00
18160;DHT22;9205;52.032;4.314;2024-01-10T10:13:24;-1.40;1.00
18160;DHT22;9205;52.032;4.314;2024-01-10T10:15:58;-1.40;99.90
18160;DHT22;9205;52.032;4.314;2024-01-10T10:18:26;-1.40;99.90
18160;DHT22;9205;52.032;4.314;2024-01-10T10:21:10;-1.40;99.90
18160;DHT22;9205;52.032;4.314;2024-01-10T10:23:39;-1.40;99.90
18160;DHT22;9205;52.032;4.314;2024-01-10T10:26:13;-1.30;99.90
18160;DHT22;9205;52.032;4.314;2024-01-10T10:28:46;-1.20;99.90
18160;DHT22;9205;52.032;4.314;2024-01-10T10:31:14;-1.10;99.90
18160;DHT22;9205;52.032;4.314;2024-01-10T10:33:43;-1.00;99.90
18160;DHT22;9205;52.032;4.314;2024-01-10T10:36:10;-1.00;99.90
18160;DHT22;9205;52.032;4.314;2024-01-10T10:38:40;-0.90;99.90
18160;DHT22;9205;52.032;4.314;2024-01-10T10:41:08;-0.90;99.90
18160;DHT22;9205;52.032;4.314;2024-01-10T10:43:38;-0.90;79.60
18160;DHT22;9205;52.032;4.314;2024-01-10T10:46:07;-0.80;46.20
18160;DHT22;9205;52.032;4.314;2024-01-10T10:48:38;-0.70;21.20
18160;DHT22;9205;52.032;4.314;2024-01-10T10:51:08;-0.60;1.00
18160;DHT22;9205;52.032;4.314;2024-01-10T10:53:37;-0.50;1.00
18160;DHT22;9205;52.032;4.314;2024-01-10T10:56:06;-0.60;1.00
18160;DHT22;9205;52.032;4.314;2024-01-10T10:58:36;-0.50;1.00
18160;DHT22;9205;52.032;4.314;2024-01-10T11:01:08;-0.40;1.00
18160;DHT22;9205;52.032;4.314;2024-01-10T11:03:38;-0.30;1.00
18160;DHT22;9205;52.032;4.314;2024-01-10T11:06:07;-0.30;1.00
18160;DHT22;9205;52.032;4.314;2024-01-10T11:08:37;-0.20;1.00
18160;DHT22;9205;52.032;4.314;2024-01-10T11:11:14;-0.20;1.00
18160;DHT22;9205;52.032;4.314;2024-01-10T11:14:09;-0.10;1.00
18160;DHT22;9205;52.032;4.314;2024-01-10T11:17:26;0.00;1.00
18160;DHT22;9205;52.032;4.314;2024-01-10T11:20:25;0.00;1.00
18160;DHT22;9205;52.032;4.314;2024-01-10T11:23:17;0.00;1.00
18160;DHT22;9205;52.032;4.314;2024-01-10T11:26:04;0.00;1.00
18160;DHT22;9205;52.032;4.314;2024-01-10T11:28:33;0.10;1.00
18160;DHT22;9205;52.032;4.314;2024-01-10T11:31:06;0.00;1.00
18160;DHT22;9205;52.032;4.314;2024-01-10T11:33:35;0.20;1.00
18160;DHT22;9205;52.032;4.314;2024-01-10T11:36:15;0.40;1.00
18160;DHT22;9205;52.032;4.314;2024-01-10T11:38:48;0.30;1.00
18160;DHT22;9205;52.032;4.314;2024-01-10T11:41:21;0.20;1.00
18160;DHT22;9205;52.032;4.314;2024-01-10T11:47:15;0.20;1.00
18160;DHT22;9205;52.032;4.314;2024-01-10T11:49:54;0.30;1.00
18160;DHT22;9205;52.032;4.314;2024-01-10T11:52:23;0.50;1.00
18160;DHT22;9205;52.032;4.314;2024-01-10T11:54:58;0.60;1.00
18160;DHT22;9205;52.032;4.314;2024-01-10T11:57:26;1.20;1.00
18160;DHT22;9205;52.032;4.314;2024-01-10T11:59:56;1.90;1.00
18160;DHT22;9205;52.032;4.314;2024-01-10T12:02:27;2.60;1.00
18160;DHT22;9205;52.032;4.314;2024-01-10T12:04:56;3.50;1.00
18160;DHT22;9205;52.032;4.314;2024-01-10T12:07:23;4.00;1.00
18160;DHT22;9205;52.032;4.314;2024-01-10T12:09:51;3.30;1.00
18160;DHT22;9205;52.032;4.314;2024-01-10T12:12:18;2.60;1.00
18160;DHT22;9205;52.032;4.314;2024-01-10T12:14:46;1.80;1.00
18160;DHT22;9205;52.032;4.314;2024-01-10T12:17:13;2.00;1.00
18160;DHT22;9205;52.032;4.314;2024-01-10T12:19:42;2.20;1.00
18160;DHT22;9205;52.032;4.314;2024-01-10T12:22:10;2.00;1.00
18160;DHT22;9205;52.032;4.314;2024-01-10T12:24:43;1.40;1.00
18160;DHT22;9205;52.032;4.314;2024-01-10T12:27:11;1.40;1.00
18160;DHT22;9205;52.032;4.314;2024-01-10T12:29:39;1.10;1.00
18160;DHT22;9205;52.032;4.314;2024-01-10T12:32:07;1.10;1.00
18160;DHT22;9205;52.032;4.314;2024-01-10T12:34:38;1.20;1.00
18160;DHT22;9205;52.032;4.314;2024-01-10T12:37:07;1.30;1.00
18160;DHT22;9205;52.032;4.314;2024-01-10T12:39:37;1.40;1.00
18160;DHT22;9205;52.032;4.314;2024-01-10T12:42:05;1.30;1.00
18160;DHT22;9205;52.032;4.314;2024-01-10T12:44:32;1.30;1.00
18160;DHT22;9205;52.032;4.314;2024-01-10T12:46:59;1.10;1.00
18160;DHT22;9205;52.032;4.314;2024-01-10T12:49:28;1.10;1.00
18160;DHT22;9205;52.032;4.314;2024-01-10T12:51:55;1.00;1.00
18160;DHT22;9205;52.032;4.314;2024-01-10T12:54:24;1.10;1.00
18160;DHT22;9205;52.032;4.314;2024-01-10T12:56:52;1.00;1.00
18160;DHT22;9205;52.032;4.314;2024-01-10T12:59:19;1.20;1.00
18160;DHT22;9205;52.032;4.314;2024-01-10T13:01:46;1.20;1.00
18160;DHT22;9205;52.032;4.314;2024-01-10T13:04:13;1.10;1.00
18160;DHT22;9205;52.032;4.314;2024-01-10T13:06:41;1.30;1.00
18160;DHT22;9205;52.032;4.314;2024-01-10T13:09:08;1.30;1.00
18160;DHT22;9205;52.032;4.314;2024-01-10T13:11:37;1.30;1.00
18160;DHT22;9205;52.032;4.314;2024-01-10T13:14:04;1.50;1.00
18160;DHT22;9205;52.032;4.314;2024-01-10T13:16:31;1.40;1.00
18160;DHT22;9205;52.032;4.314;2024-01-10T13:18:58;1.50;1.00
18160;DHT22;9205;52.032;4.314;2024-01-10T13:21:25;1.60;1.00
18160;DHT22;9205;52.032;4.314;2024-01-10T13:23:53;1.60;1.00
18160;DHT22;9205;52.032;4.314;2024-01-10T13:26:20;1.60;1.00
18160;DHT22;9205;52.032;4.314;2024-01-10T13:28:49;1.70;1.00
18160;DHT22;9205;52.032;4.314;2024-01-10T13:31:17;1.70;1.00
18160;DHT22;9205;52.032;4.314;2024-01-10T13:33:44;1.60;1.00
18160;DHT22;9205;52.032;4.314;2024-01-10T13:36:11;1.70;1.00
18160;DHT22;9205;52.032;4.314;2024-01-10T13:38:39;1.70;1.00
18160;DHT22;9205;52.032;4.314;2024-01-10T13:41:06;1.70;1.00
18160;DHT22;9205;52.032;4.314;2024-01-10T13:43:34;1.60;1.00
18160;DHT22;9205;52.032;4.314;2024-01-10T13:46:03;1.60;1.00
18160;DHT22;9205;52.032;4.314;2024-01-10T13:48:30;1.60;1.00
18160;DHT22;9205;52.032;4.314;2024-01-10T13:50:57;1.40;1.00
18160;DHT22;9205;52.032;4.314;2024-01-10T13:53:25;1.40;1.00
18160;DHT22;9205;52.032;4.314;2024-01-10T13:55:52;1.40;1.00
18160;DHT22;9205;52.032;4.314;2024-01-10T13:58:19;1.40;1.00
18160;DHT22;9205;52.032;4.314;2024-01-10T14:00:49;1.50;1.00
18160;DHT22;9205;52.032;4.314;2024-01-10T14:03:18;1.40;1.00
18160;DHT22;9205;52.032;4.314;2024-01-10T14:05:45;1.40;1.00
18160;DHT22;9205;52.032;4.314;2024-01-10T14:08:12;1.20;1.00
18160;DHT22;9205;52.032;4.314;2024-01-10T14:10:41;1.30;1.00
18160;DHT22;9205;52.032;4.314;2024-01-10T14:13:08;1.20;1.00
18160;DHT22;9205;52.032;4.314;2024-01-10T14:15:36;1.20;1.00
18160;DHT22;9205;52.032;4.314;2024-01-10T14:18:03;1.20;1.00
18160;DHT22;9205;52.032;4.314;2024-01-10T14:20:32;1.20;1.00
18160;DHT22;9205;52.032;4.314;2024-01-10T14:23:01;1.20;1.00
18160;DHT22;9205;52.032;4.314;2024-01-10T14:25:29;1.20;1.00
18160;DHT22;9205;52.032;4.314;2024-01-10T14:27:56;1.20;1.00
18160;DHT22;9205;52.032;4.314;2024-01-10T14:30:24;1.10;1.00
18160;DHT22;9205;52.032;4.314;2024-01-10T14:32:52;1.10;1.00
18160;DHT22;9205;52.032;4.314;2024-01-10T14:35:20;1.00;1.00
18160;DHT22;9205;52.032;4.314;2024-01-10T14:37:48;0.90;1.00
18160;DHT22;9205;52.032;4.314;2024-01-10T14:40:15;0.90;1.00
18160;DHT22;9205;52.032;4.314;2024-01-10T14:42:43;1.00;1.00
18160;DHT22;9205;52.032;4.314;2024-01-10T14:45:11;1.00;1.00
18160;DHT22;9205;52.032;4.314;2024-01-10T14:47:38;1.00;1.00
18160;DHT22;9205;52.032;4.314;2024-01-10T14:50:06;1.00;1.00
18160;DHT22;9205;52.032;4.314;2024-01-10T14:52:34;0.90;1.00
18160;DHT22;9205;52.032;4.314;2024-01-10T14:55:03;0.90;1.00
18160;DHT22;9205;52.032;4.314;2024-01-10T14:57:31;0.80;1.00
18160;DHT22;9205;52.032;4.314;2024-01-10T14:59:59;0.80;1.00
18160;DHT22;9205;52.032;4.314;2024-01-10T15:02:26;0.80;1.00
18160;DHT22;9205;52.032;4.314;2024-01-10T15:04:54;0.70;1.00
18160;DHT22;9205;52.032;4.314;2024-01-10T15:07:21;0.60;1.00
18160;DHT22;9205;52.032;4.314;2024-01-10T15:09:48;0.60;1.00
18160;DHT22;9205;52.032;4.314;2024-01-10T15:12:17;0.60;1.00
18160;DHT22;9205;52.032;4.314;2024-01-10T15:14:44;0.60;1.00
18160;DHT22;9205;52.032;4.314;2024-01-10T15:17:12;0.50;1.00
18160;DHT22;9205;52.032;4.314;2024-01-10T15:19:39;0.60;1.00
18160;DHT22;9205;52.032;4.314;2024-01-10T15:22:06;0.50;1.00
18160;DHT22;9205;52.032;4.314;2024-01-10T15:24:34;0.50;1.00
18160;DHT22;9205;52.032;4.314;2024-01-10T15:27:01;0.50;1.00
18160;DHT22;9205;52.032;4.314;2024-01-10T15:29:35;0.40;1.00
18160;DHT22;9205;52.032;4.314;2024-01-10T15:32:04;0.40;1.00
18160;DHT22;9205;52.032;4.314;2024-01-10T15:34:32;0.40;1.00
18160;DHT22;9205;52.032;4.314;2024-01-10T15:36:59;0.30;1.00
18160;DHT22;9205;52.032;4.314;2024-01-10T15:39:26;0.40;1.00
18160;DHT22;9205;52.032;4.314;2024-01-10T15:41:53;0.30;1.00
18160;DHT22;9205;52.032;4.314;2024-01-10T15:44:21;0.30;1.00
18160;DHT22;9205;52.032;4.314;2024-01-10T15:46:49;0.30;1.00
18160;DHT22;9205;52.032;4.314;2024-01-10T15:49:17;0.30;1.00
18160;DHT22;9205;52.032;4.314;2024-01-10T15:51:44;0.30;1.00
18160;DHT22;9205;52.032;4.314;2024-01-10T15:54:14;0.30;1.00
18160;DHT22;9205;52.032;4.314;2024-01-10T15:56:41;0.20;1.00
18160;DHT22;9205;52.032;4.314;2024-01-10T15:59:08;0.20;1.00
18160;DHT22;9205;52.032;4.314;2024-01-10T16:01:36;0.10;1.00
18160;DHT22;9205;52.032;4.314;2024-01-10T16:04:05;0.10;1.00
18160;DHT22;9205;52.032;4.314;2024-01-10T16:06:32;0.10;1.00
18160;DHT22;9205;52.032;4.314;2024-01-10T16:09:00;0.10;1.00
18160;DHT22;9205;52.032;4.314;2024-01-10T16:11:29;0.10;1.00
18160;DHT22;9205;52.032;4.314;2024-01-10T16:13:56;0.10;1.00